createdAt,value
2019-04-06T00:01:50.472Z,50.22
2019-04-06T00:04:20.379Z,49.73
2019-04-06T00:06:50.132Z,49.91
2019-04-06T00:09:20.040Z,49.96
2019-04-06T00:11:50.057Z,50.24
2019-04-06T00:14:19.948Z,50.18
2019-04-06T00:16:49.793Z,49.86
2019-04-06T00:19:19.559Z,50.03
2019-04-06T00:21:49.349Z,50.36
2019-04-06T00:24:19.185Z,50.23
2019-04-06T00:26:48.986Z,50.56
2019-04-06T00:29:18.712Z,50.40
2019-04-06T00:31:50.075Z,50.49
2019-04-06T00:34:19.905Z,50.38
2019-04-06T00:36:49.680Z,50.72
2019-04-06T00:39:19.447Z,50.74
2019-04-06T00:41:49.339Z,50.83
2019-04-06T00:44:19.230Z,50.95
2019-04-06T00:46:49.017Z,51.05
2019-04-06T00:49:18.801Z,51.24
2019-04-06T00:51:48.574Z,51.24
2019-04-06T00:54:18.339Z,51.14
2019-04-06T00:56:48.188Z,51.16
2019-04-06T00:59:17.974Z,51.05
2019-04-06T01:01:47.819Z,51.21
2019-04-06T01:04:17.602Z,51.41
2019-04-06T01:06:47.766Z,51.55
2019-04-06T01:09:17.829Z,51.50
2019-04-06T01:11:47.719Z,51.55
2019-04-06T01:14:17.555Z,51.62
2019-04-06T01:16:47.352Z,51.64
2019-04-06T01:19:17.098Z,51.67
2019-04-06T01:21:46.933Z,52.07
2019-04-06T01:24:16.738Z,52.07
2019-04-06T01:26:46.540Z,52.33
2019-04-06T01:29:16.318Z,52.46
2019-04-06T01:31:46.131Z,52.29
2019-04-06T01:34:15.891Z,52.76
2019-04-06T01:36:45.765Z,52.65
2019-04-06T01:39:15.648Z,52.55
2019-04-06T01:41:45.500Z,52.70
2019-04-06T01:44:15.384Z,52.67
2019-04-06T01:46:45.123Z,52.86
2019-04-06T01:49:15.072Z,52.87
2019-04-06T01:51:44.832Z,53.02
2019-04-06T01:54:14.616Z,53.29
2019-04-06T01:56:44.383Z,53.18
2019-04-06T01:59:14.853Z,53.31
2019-04-06T02:01:52.381Z,53.36
2019-04-06T02:04:22.280Z,53.39
2019-04-06T02:06:52.151Z,53.58
2019-04-06T02:09:22.061Z,53.80
2019-04-06T02:11:51.823Z,53.80
2019-04-06T02:14:21.599Z,54.09
2019-04-06T02:16:51.368Z,53.92
2019-04-06T02:19:21.106Z,54.03
2019-04-06T02:21:52.275Z,54.09
2019-04-06T02:24:22.010Z,54.31
2019-04-06T02:26:51.865Z,54.39
2019-04-06T02:29:21.739Z,54.54
2019-04-06T02:31:56.100Z,54.64
2019-04-06T02:34:30.276Z,54.69
2019-04-06T02:37:07.464Z,54.93
2019-04-06T02:39:41.736Z,54.89
2019-04-06T02:42:19.037Z,54.78
2019-04-06T02:44:48.975Z,55.39
2019-04-06T02:47:18.885Z,55.28
2019-04-06T02:49:48.966Z,55.60
2019-04-06T02:52:18.824Z,55.21
2019-04-06T02:54:48.631Z,55.42
2019-04-06T02:57:18.468Z,55.63
2019-04-06T02:59:48.276Z,55.59
2019-04-06T03:02:18.115Z,55.45
2019-04-06T03:04:47.999Z,55.77
2019-04-06T03:07:17.869Z,55.51
2019-04-06T03:09:48.006Z,56.03
2019-04-06T03:12:17.827Z,56.36
2019-04-06T03:14:47.638Z,56.49
2019-04-06T03:17:17.553Z,56.74
2019-04-06T03:19:47.592Z,56.55
2019-04-06T03:22:17.743Z,56.69
2019-04-06T03:24:47.998Z,56.65
2019-04-06T03:27:17.940Z,56.59
2019-04-06T03:29:57.325Z,56.62
2019-04-06T03:32:19.575Z,56.79
2019-04-06T03:34:49.412Z,57.11
2019-04-06T03:37:19.384Z,57.18
2019-04-06T03:39:49.229Z,56.99
2019-04-06T03:42:19.136Z,57.09
2019-04-06T03:44:49.441Z,56.95
2019-04-06T03:47:19.620Z,57.27
2019-04-06T03:49:49.442Z,57.17
2019-04-06T03:52:19.549Z,57.17
2019-04-06T03:54:49.487Z,57.28
2019-04-06T03:57:19.389Z,57.45
2019-04-06T03:59:49.214Z,57.43
2019-04-06T04:02:19.088Z,57.54
2019-04-06T04:04:49.075Z,57.66
2019-04-06T04:07:19.142Z,57.65
2019-04-06T04:09:49.070Z,57.88
2019-04-06T04:12:18.903Z,58.04
2019-04-06T04:14:48.802Z,57.81
2019-04-06T04:17:18.841Z,58.10
2019-04-06T04:19:48.738Z,58.38
2019-04-06T04:22:18.768Z,59.02
2019-04-06T04:24:48.660Z,58.67
2019-04-06T04:27:28.559Z,58.86
2019-04-06T04:29:50.240Z,58.67
2019-04-06T04:32:20.085Z,58.67
2019-04-06T04:34:49.993Z,58.41
2019-04-06T04:37:19.833Z,58.39
2019-04-06T04:39:49.738Z,57.87
2019-04-06T04:42:19.574Z,57.66
2019-04-06T04:44:49.796Z,57.46
2019-04-06T04:47:19.534Z,57.14
2019-04-06T04:49:49.419Z,56.80
2019-04-06T04:52:19.287Z,56.93
2019-04-06T04:54:49.014Z,57.15
2019-04-06T04:57:18.937Z,57.05
2019-04-06T04:59:48.788Z,56.99
2019-04-06T05:02:18.623Z,57.17
2019-04-06T05:04:48.534Z,56.95
2019-04-06T05:07:18.371Z,56.65
2019-04-06T05:09:48.122Z,56.53
2019-04-06T05:12:17.900Z,56.31
2019-04-06T05:15:02.376Z,56.14
2019-04-06T05:17:32.329Z,56.04
2019-04-06T05:20:02.125Z,55.93
2019-04-06T05:22:32.096Z,55.81
2019-04-06T05:25:02.448Z,55.39
2019-04-06T05:27:32.684Z,55.46
2019-04-06T05:30:02.628Z,55.29
2019-04-06T05:32:32.520Z,55.22
2019-04-06T05:35:02.422Z,54.73
2019-04-06T05:37:32.331Z,54.95
2019-04-06T05:40:02.185Z,55.10
2019-04-06T05:42:32.352Z,54.41
2019-04-06T05:45:02.075Z,54.43
2019-04-06T05:47:31.975Z,54.11
2019-04-06T05:50:01.824Z,53.79
2019-04-06T05:52:31.723Z,54.10
2019-04-06T05:55:01.570Z,53.80
2019-04-06T05:57:32.683Z,53.78
2019-04-06T06:00:02.611Z,53.64
2019-04-06T06:02:32.495Z,53.55
2019-04-06T06:05:02.309Z,53.27
2019-04-06T06:07:32.212Z,53.23
2019-04-06T06:10:01.954Z,52.79
2019-04-06T06:12:31.727Z,52.40
2019-04-06T06:15:01.507Z,52.55
2019-04-06T06:17:31.336Z,52.22
2019-04-06T06:20:01.153Z,52.38
2019-04-06T06:22:31.336Z,51.41
2019-04-06T06:25:01.674Z,51.24
2019-04-06T06:27:31.713Z,50.99
2019-04-06T06:30:01.653Z,50.63
2019-04-06T06:32:31.762Z,50.61
2019-04-06T06:35:01.752Z,50.55
2019-04-06T06:37:31.690Z,50.18
2019-04-06T06:40:01.618Z,49.95
2019-04-06T06:42:31.482Z,49.38
2019-04-06T06:45:01.446Z,49.46
2019-04-06T06:47:31.492Z,49.81
2019-04-06T06:50:01.384Z,48.79
2019-04-06T06:52:31.264Z,49.07
2019-04-06T06:55:01.116Z,48.57
2019-04-06T06:57:30.949Z,48.58
2019-04-06T07:00:00.848Z,48.33
2019-04-06T07:02:30.659Z,48.37
2019-04-06T07:05:00.439Z,48.12
2019-04-06T07:07:30.311Z,47.52
2019-04-06T07:10:05.750Z,47.48
2019-04-06T07:12:31.972Z,47.03
2019-04-06T07:15:01.810Z,47.13
2019-04-06T07:17:31.585Z,46.53
2019-04-06T07:20:01.369Z,46.50
2019-04-06T07:22:31.202Z,46.59
2019-04-06T07:25:00.990Z,46.41
2019-04-06T07:27:30.741Z,46.51
2019-04-06T07:30:00.524Z,46.33
2019-04-06T07:32:30.402Z,46.40
2019-04-06T07:35:00.220Z,46.35
2019-04-06T07:37:30.034Z,46.43
2019-04-06T07:40:00.093Z,46.66
2019-04-06T07:42:29.953Z,46.49
2019-04-06T07:44:59.706Z,46.16
2019-04-06T07:47:29.467Z,46.25
2019-04-06T07:49:59.244Z,46.50
2019-04-06T07:52:28.998Z,46.03
2019-04-06T07:54:58.973Z,45.69
2019-04-06T07:57:28.727Z,45.88
2019-04-06T07:59:58.498Z,45.66
2019-04-06T08:02:28.463Z,45.12
2019-04-06T08:04:58.306Z,45.29
2019-04-06T08:07:28.037Z,45.23
2019-04-06T08:09:57.842Z,44.97
2019-04-06T08:12:27.773Z,44.37
2019-04-06T08:14:57.682Z,44.43
2019-04-06T08:17:27.480Z,43.76
2019-04-06T08:19:57.263Z,43.60
2019-04-06T08:22:27.201Z,44.14
2019-04-06T08:24:57.117Z,43.07
2019-04-06T08:27:26.911Z,43.28
2019-04-06T08:29:56.769Z,42.85
2019-04-06T08:32:26.508Z,42.20
2019-04-06T08:34:56.310Z,42.79
2019-04-06T08:37:26.040Z,42.25
2019-04-06T08:39:55.867Z,43.10
2019-04-06T08:42:25.640Z,42.02
2019-04-06T08:44:55.625Z,41.54
2019-04-06T08:47:25.583Z,41.13
2019-04-06T08:52:24.080Z,40.86
2019-04-06T08:54:53.838Z,40.66
2019-04-06T08:57:23.621Z,41.01
2019-04-06T08:59:53.673Z,40.91
2019-04-06T09:02:23.627Z,40.23
2019-04-06T09:04:53.578Z,40.49
2019-04-06T09:07:23.588Z,39.73
2019-04-06T09:09:53.563Z,39.72
2019-04-06T09:12:23.780Z,40.10
2019-04-06T09:14:53.767Z,39.97
2019-04-06T09:17:23.783Z,39.31
2019-04-06T09:19:53.773Z,39.13
2019-04-06T09:22:23.801Z,39.40
2019-04-06T09:24:53.780Z,38.68
2019-04-06T09:27:24.269Z,38.91
2019-04-06T09:29:54.294Z,37.80
2019-04-06T09:32:24.355Z,38.75
2019-04-06T09:34:54.338Z,38.13
2019-04-06T12:51:03.353Z,30.94
2019-04-06T13:00:27.698Z,30.46
2019-04-06T13:07:40.878Z,30.06
2019-04-06T13:27:35.425Z,29.72
2019-04-06T14:02:06.310Z,31.01
2019-04-06T14:17:10.980Z,31.05
2019-04-06T14:20:25.622Z,30.69
2019-04-06T14:23:22.579Z,31.10
2019-04-06T16:46:26.831Z,34.68
2019-04-06T22:44:45.639Z,52.05
2019-04-06T22:47:15.822Z,52.19
2019-04-06T22:49:45.823Z,52.08
2019-04-06T22:52:15.834Z,52.49
2019-04-06T22:54:45.856Z,52.53
2019-04-06T22:57:16.051Z,52.69
2019-04-06T22:59:46.206Z,53.03
2019-04-06T23:02:16.785Z,52.44
2019-04-06T23:04:50.938Z,52.54
2019-04-06T23:07:21.843Z,53.08
2019-04-06T23:09:52.120Z,53.36
2019-04-06T23:12:22.255Z,53.37
2019-04-06T23:14:52.371Z,53.32
2019-04-06T23:17:22.520Z,53.35
2019-04-06T23:19:53.276Z,53.73
2019-04-06T23:22:23.443Z,53.80
2019-04-06T23:24:53.588Z,53.86
2019-04-06T23:27:24.266Z,53.76
2019-04-06T23:29:55.157Z,53.66
2019-04-06T23:32:25.403Z,53.85
2019-04-06T23:34:59.845Z,53.96
2019-04-06T23:37:27.105Z,53.96
2019-04-06T23:39:57.217Z,53.82
2019-04-06T23:42:27.291Z,53.83
2019-04-06T23:44:57.787Z,54.27
2019-04-06T23:47:28.316Z,54.33
2019-04-06T23:49:58.545Z,54.37
2019-04-06T23:52:28.646Z,54.72
2019-04-06T23:54:58.895Z,55.37
2019-04-06T23:57:29.196Z,55.60
2019-04-06T23:59:59.338Z,55.81
